Time;durP1;ratioP1;P1;durP2;ratioP2;P2;SDS_P1;SDS_P2;PMS_P1;PMS_P2;Temp;Humidity;BMP_temperature;BMP_pressure;BME280_temperature;BME280_humidity;BME280_pressure;Samples;Min_cycle;Max_cycle;Signal;HPM_P1;HPM_P2
2022/09/29 00:00:13;;;;;;;10.57;9.50;;;;;;;8.68;80.96;99724.22;3578856;40;20048;-62
2022/09/29 00:02:39;;;;;;;11.07;9.60;;;;;;;8.62;80.78;99716.59;3575281;40;20049;-62
2022/09/29 00:05:05;;;;;;;11.05;9.25;;;;;;;8.70;81.34;99733.00;3581448;40;20064;-62
2022/09/29 00:07:31;;;;;;;12.98;9.82;;;;;;;8.04;81.56;99626.03;3579506;40;20051;-62
2022/09/29 00:09:57;;;;;;;10.95;9.63;;;;;;;8.69;81.07;99736.63;3578854;40;20350;-62
2022/09/29 00:12:24;;;;;;;15.05;9.43;;;;;;;8.68;80.91;99734.94;3580271;40;20058;-63
2022/09/29 00:14:51;;;;;;;11.30;9.52;;;;;;;8.11;80.75;99648.72;3580215;40;20056;-61
2022/09/29 00:17:17;;;;;;;10.65;9.30;;;;;;;8.62;81.42;99730.00;3581067;40;20080;-62
2022/09/29 00:19:43;;;;;;;10.68;8.95;;;;;;;8.58;80.13;99742.75;3577619;40;20202;-62
2022/09/29 00:22:08;;;;;;;12.05;9.75;;;;;;;8.45;80.46;99718.66;3582208;40;20507;-61
2022/09/29 00:24:34;;;;;;;10.50;9.27;;;;;;;8.51;81.03;99734.31;3580194;40;20052;-61
2022/09/29 00:27:01;;;;;;;11.93;9.98;;;;;;;8.46;80.36;99733.75;3580252;40;20299;-62
2022/09/29 00:29:27;;;;;;;11.35;8.82;;;;;;;8.43;79.96;99731.31;3579857;40;20110;-62
2022/09/29 00:31:53;;;;;;;10.32;9.07;;;;;;;8.27;80.24;99712.75;3578868;40;20056;-61
2022/09/29 00:34:19;;;;;;;11.40;9.68;;;;;;;8.27;79.94;99719.94;3581208;40;20090;-62
2022/09/29 00:36:44;;;;;;;12.13;9.82;;;;;;;8.25;80.87;99720.06;3580013;40;20412;-62
2022/09/29 00:39:10;;;;;;;10.25;9.15;;;;;;;8.26;80.24;99723.56;3579311;40;20089;-62
2022/09/29 00:41:39;;;;;;;12.48;9.65;;;;;;;8.28;80.70;99732.38;3579734;40;20046;-62
2022/09/29 00:44:11;;;;;;;11.50;9.75;;;;;;;8.25;80.97;99730.75;3581104;40;20100;-61
2022/09/29 00:47:01;;;;;;;13.00;10.25;;;;;;;8.23;80.67;99732.69;3580065;39;20094;-62
2022/09/29 00:50:31;;;;;;;11.63;10.40;;;;;;;8.20;80.72;99734.72;3579513;40;20055;-62
2022/09/29 00:53:02;;;;;;;10.85;9.15;;;;;;;8.08;80.92;99715.84;3573258;40;20057;-61
2022/09/29 00:55:49;;;;;;;15.75;9.50;;;;;;;8.13;80.75;99732.47;3580699;39;20055;-62
2022/09/29 00:58:53;;;;;;;13.35;9.85;;;;;;;8.03;80.48;99717.16;3577779;40;20124;-61
2022/09/29 01:01:22;;;;;;;15.90;9.93;;;;;;;7.96;81.06;99711.38;3575370;40;20052;-62
2022/09/29 01:03:56;;;;;;;11.95;9.88;;;;;;;8.08;81.03;99726.56;3581320;40;20387;-61
2022/09/29 01:06:35;;;;;;;11.45;9.90;;;;;;;8.07;81.44;99724.84;3575578;40;20387;-61
2022/09/29 01:09:14;;;;;;;14.68;10.45;;;;;;;8.03;81.04;99712.66;3582578;40;20292;-62
2022/09/29 01:11:39;;;;;;;13.60;11.07;;;;;;;7.52;81.36;99631.50;3581061;40;20115;-62
2022/09/29 01:14:09;;;;;;;12.18;10.23;;;;;;;8.09;80.68;99722.94;3582743;40;20064;-63
2022/09/29 01:16:40;;;;;;;14.23;10.45;;;;;;;8.04;80.69;99717.03;3580396;40;20062;-61
2022/09/29 01:19:16;;;;;;;11.15;9.93;;;;;;;8.06;80.47;99723.16;3582178;40;20048;-63
2022/09/29 01:22:03;;;;;;;12.57;10.63;;;;;;;8.03;81.62;99722.50;3581085;39;20132;-62
2022/09/29 01:25:20;;;;;;;13.75;9.93;;;;;;;7.98;80.96;99725.50;3577449;40;20321;-62
2022/09/29 01:28:36;;;;;;;11.32;10.00;;;;;;;7.95;81.16;99732.88;3585014;40;20360;-62
2022/09/29 01:31:21;;;;;;;13.02;10.10;;;;;;;7.95;81.17;99740.91;3577835;39;20107;-62
2022/09/29 01:34:21;;;;;;;13.20;10.45;;;;;;;7.21;81.32;99607.69;3580171;40;20376;-62
2022/09/29 01:37:20;;;;;;;11.10;9.32;;;;;;;7.84;81.56;99718.41;3574344;40;20163;-62
2022/09/29 01:39:54;;;;;;;11.80;10.57;;;;;;;7.91;81.26;99735.75;3579715;40;20312;-62
2022/09/29 01:42:32;;;;;;;11.70;10.23;;;;;;;7.67;81.40;99708.88;3575432;40;20055;-62
2022/09/29 01:45:28;;;;;;;11.55;10.18;;;;;;;7.85;81.07;99729.97;3576230;40;20388;-62
2022/09/29 01:48:05;;;;;;;12.63;10.20;;;;;;;7.85;80.96;99729.97;3574124;40;20146;-61
2022/09/29 01:50:49;;;;;;;13.82;9.98;;;;;;;7.79;81.07;99733.06;3576170;40;20048;-61
2022/09/29 01:53:27;;;;;;;12.57;9.57;;;;;;;7.80;81.35;99727.63;3579185;40;20054;-61
2022/09/29 01:56:02;;;;;;;12.70;10.20;;;;;;;7.75;81.67;99734.25;3579078;40;20376;-61
2022/09/29 01:58:51;;;;;;;12.75;10.07;;;;;;;7.79;81.10;99747.28;3576764;40;20053;-61
2022/09/29 02:01:23;;;;;;;12.98;10.50;;;;;;;7.79;80.97;99746.44;3577977;40;20070;-61
2022/09/29 02:04:03;;;;;;;12.88;10.90;;;;;;;7.74;81.64;99738.72;3578564;40;20052;-61
2022/09/29 02:06:39;;;;;;;13.23;10.35;;;;;;;7.77;80.98;99743.88;3578451;40;20111;-61
2022/09/29 02:09:15;;;;;;;12.25;10.90;;;;;;;7.73;81.31;99742.34;3578134;40;20052;-61
2022/09/29 02:11:41;;;;;;;12.00;10.18;;;;;;;7.73;80.94;99746.84;3579468;40;20157;-61
2022/09/29 02:14:35;;;;;;;14.48;12.10;;;;;;;6.82;81.26;99594.31;3580796;40;20052;-61
2022/09/29 02:17:28;;;;;;;14.00;11.45;;;;;;;7.68;81.76;99745.34;3577633;40;20052;-61
2022/09/29 02:19:54;;;;;;;15.17;11.97;;;;;;;7.67;82.11;99735.63;3576765;40;20318;-61
2022/09/29 02:22:20;;;;;;;14.15;11.48;;;;;;;7.69;82.02;99735.50;3574057;40;20062;-61
2022/09/29 02:24:52;;;;;;;15.93;11.80;;;;;;;7.70;81.78;99741.69;3573972;40;20119;-61
2022/09/29 02:27:21;;;;;;;14.85;11.63;;;;;;;7.67;81.51;99749.00;3573731;40;20096;-61
2022/09/29 02:29:47;;;;;;;13.15;10.65;;;;;;;7.65;81.75;99745.56;3575837;40;20060;-61
2022/09/29 02:32:13;;;;;;;15.10;10.57;;;;;;;6.88;81.30;99612.59;3576003;40;20083;-61
2022/09/29 02:34:45;;;;;;;12.60;11.30;;;;;;;7.00;80.86;99635.00;3575989;40;20343;-61
2022/09/29 02:37:40;;;;;;;13.40;11.88;;;;;;;7.58;81.87;99741.59;3577659;40;20434;-61
2022/09/29 02:40:20;;;;;;;12.95;10.82;;;;;;;7.59;81.10;99743.28;3573960;40;20079;-61
2022/09/29 02:43:05;;;;;;;16.02;11.27;;;;;;;7.47;80.60;99728.06;3573182;40;20060;-61
2022/09/29 02:46:13;;;;;;;13.00;11.57;;;;;;;7.49;81.06;99734.19;3574142;40;20370;-61
2022/09/29 02:49:09;;;;;;;14.60;12.38;;;;;;;7.48;81.21;99736.94;3580258;40;20259;-61
2022/09/29 02:52:16;;;;;;;14.38;11.95;;;;;;;6.27;80.67;99543.56;3578975;40;20080;-62
2022/09/29 02:55:24;;;;;;;15.13;13.50;;;;;;;7.46;81.33;99742.41;3578797;40;20056;-61
2022/09/29 02:58:08;;;;;;;14.65;12.60;;;;;;;7.40;81.60;99730.28;3573282;40;20122;-61
2022/09/29 03:00:35;;;;;;;15.27;11.27;;;;;;;7.42;81.48;99743.53;3578646;40;20052;-62
2022/09/29 03:03:00;;;;;;;14.30;11.95;;;;;;;6.88;81.15;99658.03;3585319;40;20392;-62
2022/09/29 03:05:26;;;;;;;15.73;12.85;;;;;;;7.40;81.68;99743.66;3576920;40;20064;-62
2022/09/29 03:07:52;;;;;;;13.68;11.23;;;;;;;7.40;81.17;99740.97;3576231;40;20080;-62
2022/09/29 03:10:18;;;;;;;14.73;11.63;;;;;;;7.37;81.42;99737.66;3577752;40;20311;-62
2022/09/29 03:12:43;;;;;;;11.65;10.45;;;;;;;7.38;80.38;99748.22;3579112;40;20072;-61
2022/09/29 03:15:11;;;;;;;15.10;11.30;;;;;;;7.33;80.22;99738.81;3579405;40;20068;-61
2022/09/29 03:17:38;;;;;;;12.32;11.13;;;;;;;6.67;80.10;99637.09;3579585;40;20049;-62
2022/09/29 03:20:05;;;;;;;15.45;10.93;;;;;;;7.32;80.31;99742.44;3579095;40;20303;-61
2022/09/29 03:22:30;;;;;;;12.75;11.43;;;;;;;7.09;81.09;99704.72;3577561;40;20057;-62
2022/09/29 03:24:56;;;;;;;12.40;11.13;;;;;;;7.20;81.36;99728.94;3574800;40;20312;-62
2022/09/29 03:27:22;;;;;;;15.57;11.60;;;;;;;7.19;81.33;99726.34;3577435;40;20332;-62
2022/09/29 03:29:49;;;;;;;13.70;11.50;;;;;;;6.53;80.61;99628.25;3578947;40;20114;-61
2022/09/29 03:32:16;;;;;;;12.55;11.27;;;;;;;7.25;80.71;99743.81;3583927;40;20185;-62
2022/09/29 03:34:41;;;;;;;12.35;11.07;;;;;;;6.49;80.74;99620.44;3580244;40;20058;-61
2022/09/29 03:37:07;;;;;;;12.07;10.88;;;;;;;6.44;80.87;99608.38;3578050;40;20068;-61
2022/09/29 03:39:33;;;;;;;12.07;10.55;;;;;;;7.19;80.37;99737.03;3581260;40;20403;-61
2022/09/29 03:41:59;;;;;;;14.48;11.18;;;;;;;7.15;80.19;99739.06;3574676;40;20060;-61
2022/09/29 03:44:24;;;;;;;15.05;11.10;;;;;;;7.14;80.69;99733.81;3578818;40;20064;-62
2022/09/29 03:46:50;;;;;;;13.57;11.25;;;;;;;7.15;81.20;99743.53;3577133;40;20048;-61
2022/09/29 03:49:16;;;;;;;13.20;11.80;;;;;;;7.15;81.22;99748.91;3579952;40;20048;-61
2022/09/29 03:51:42;;;;;;;12.27;10.88;;;;;;;7.13;81.53;99738.28;3581947;40;20319;-62
2022/09/29 03:54:08;;;;;;;15.48;11.60;;;;;;;7.02;81.10;99724.78;3576976;40;20057;-62
2022/09/29 03:56:36;;;;;;;14.48;10.77;;;;;;;7.11;81.15;99740.22;3584012;40;20061;-61
2022/09/29 03:59:04;;;;;;;16.98;11.73;;;;;;;7.13;80.96;99765.00;3575351;40;20363;-61
2022/09/29 04:01:33;;;;;;;12.55;11.25;;;;;;;7.12;80.57;99749.09;3580263;40;20275;-61
2022/09/29 04:03:59;;;;;;;13.45;11.73;;;;;;;7.11;81.33;99745.56;3575697;40;20122;-61
2022/09/29 04:06:25;;;;;;;12.85;11.07;;;;;;;7.01;80.92;99732.88;3577412;40;20049;-61
2022/09/29 04:08:51;;;;;;;15.05;12.05;;;;;;;6.38;80.84;99627.47;3576173;40;20044;-61
2022/09/29 04:11:16;;;;;;;15.32;11.73;;;;;;;7.04;80.65;99746.94;3581083;40;20279;-61
2022/09/29 04:13:42;;;;;;;13.05;10.60;;;;;;;7.03;81.38;99750.53;3578189;40;20052;-61
2022/09/29 04:16:07;;;;;;;14.73;12.43;;;;;;;7.03;80.79;99758.56;3580402;40;20412;-61
2022/09/29 04:18:33;;;;;;;12.38;10.68;;;;;;;7.01;80.54;99755.16;3582467;40;20056;-61
2022/09/29 04:21:05;;;;;;;14.63;11.63;;;;;;;6.98;80.61;99761.53;3581235;40;20108;-61
2022/09/29 04:23:30;;;;;;;12.27;11.07;;;;;;;7.01;80.51;99764.94;3579425;40;20121;-60
2022/09/29 04:25:57;;;;;;;12.65;11.35;;;;;;;6.99;80.17;99773.06;3578608;40;20064;-61
2022/09/29 04:28:24;;;;;;;14.52;11.32;;;;;;;6.99;80.68;99767.72;3581146;40;20124;-60
2022/09/29 04:30:50;;;;;;;13.05;11.40;;;;;;;6.96;80.24;99768.78;3580769;40;20390;-61
2022/09/29 04:33:17;;;;;;;13.30;10.73;;;;;;;6.95;80.51;99771.56;3580672;40;20096;-61
2022/09/29 04:35:42;;;;;;;13.38;11.50;;;;;;;6.92;80.24;99774.44;3582700;40;20104;-61
2022/09/29 04:38:08;;;;;;;13.45;11.73;;;;;;;6.84;79.85;99758.88;3581405;40;20068;-61
2022/09/29 04:40:36;;;;;;;13.82;11.30;;;;;;;6.87;80.46;99763.16;3582835;40;20070;-61
2022/09/29 04:43:03;;;;;;;12.38;11.05;;;;;;;6.15;80.36;99650.22;3579558;40;20061;-61
2022/09/29 04:45:32;;;;;;;12.65;11.35;;;;;;;6.86;80.79;99775.66;3588967;39;20067;-62
2022/09/29 04:47:58;;;;;;;12.95;11.23;;;;;;;6.85;80.43;99781.09;3584048;39;20303;-60
2022/09/29 04:50:25;;;;;;;13.57;12.15;;;;;;;6.83;80.39;99778.53;3581935;40;20040;-61
2022/09/29 04:52:51;;;;;;;12.77;11.40;;;;;;;6.82;80.46;99776.81;3580649;40;20510;-61
2022/09/29 04:55:19;;;;;;;15.13;12.10;;;;;;;6.77;80.12;99778.06;3588100;39;20088;-61
2022/09/29 04:57:46;;;;;;;14.13;12.45;;;;;;;6.81;80.89;99782.25;3583941;40;20049;-61
2022/09/29 05:00:12;;;;;;;13.18;11.80;;;;;;;5.37;80.76;99543.06;3588943;39;20056;-61
2022/09/29 05:02:38;;;;;;;13.85;11.63;;;;;;;6.81;80.82;99774.25;3580791;40;20387;-60
2022/09/29 05:05:05;;;;;;;13.93;12.20;;;;;;;6.79;80.74;99787.72;3583433;40;20044;-60
2022/09/29 05:07:35;;;;;;;15.32;11.73;;;;;;;6.77;81.35;99778.06;3587029;39;20049;-61
2022/09/29 05:10:02;;;;;;;15.38;12.40;;;;;;;6.73;81.55;99778.25;3569052;40;20126;-60
2022/09/29 05:12:28;;;;;;;15.02;12.60;;;;;;;6.77;81.13;99794.09;3569767;40;20364;-61
2022/09/29 05:14:54;;;;;;;18.05;11.75;;;;;;;6.76;81.02;99792.38;3576488;40;20080;-61
2022/09/29 05:17:19;;;;;;;14.15;12.57;;;;;;;6.73;80.28;99790.75;3581654;40;20379;-61
2022/09/29 05:19:45;;;;;;;14.60;11.80;;;;;;;6.68;80.61;99785.69;3574514;40;20058;-60
2022/09/29 05:22:10;;;;;;;16.23;12.05;;;;;;;6.72;80.29;99805.94;3581392;40;20071;-61
2022/09/29 05:24:36;;;;;;;16.02;12.70;;;;;;;6.73;81.16;99802.28;3590702;39;20055;-61
2022/09/29 05:27:02;;;;;;;15.50;12.52;;;;;;;6.76;80.78;99808.41;3575559;40;20052;-62
2022/09/29 05:29:28;;;;;;;15.98;12.57;;;;;;;6.77;81.06;99804.78;3581367;40;20133;-61
2022/09/29 05:31:53;;;;;;;15.30;12.32;;;;;;;6.67;81.08;99783.13;3577780;40;20055;-61
2022/09/29 05:34:20;;;;;;;14.98;12.38;;;;;;;6.73;79.84;99806.78;3583155;40;20095;-61
2022/09/29 05:36:45;;;;;;;13.90;12.40;;;;;;;6.76;80.23;99808.41;3581564;40;20302;-61
2022/09/29 05:39:12;;;;;;;16.95;11.50;;;;;;;6.73;80.73;99807.63;3578687;40;20075;-61
2022/09/29 05:41:38;;;;;;;15.52;12.30;;;;;;;6.72;79.91;99808.59;3589106;39;20058;-61
2022/09/29 05:44:03;;;;;;;14.70;11.80;;;;;;;6.68;79.89;99815.06;3577535;40;20052;-62
2022/09/29 05:46:29;;;;;;;15.48;12.70;;;;;;;6.68;79.76;99807.06;3579510;40;20067;-62
2022/09/29 05:48:57;;;;;;;15.65;12.77;;;;;;;6.72;79.58;99811.28;3578263;40;20536;-65
2022/09/29 05:51:25;;;;;;;14.57;12.38;;;;;;;5.96;79.78;99696.75;3580679;40;20059;-62
2022/09/29 05:53:53;;;;;;;14.45;12.07;;;;;;;6.66;79.92;99808.97;3579516;40;20311;-61
2022/09/29 05:56:24;;;;;;;16.60;12.60;;;;;;;6.73;80.05;99821.00;3580096;40;20056;-62
2022/09/29 05:58:52;;;;;;;15.07;12.02;;;;;;;5.79;79.60;99673.72;3577162;40;20416;-62
2022/09/29 06:01:24;;;;;;;18.95;13.57;;;;;;;6.73;80.16;99825.47;3578674;40;20057;-61
2022/09/29 06:03:52;;;;;;;15.98;12.65;;;;;;;6.70;80.32;99815.84;3579355;39;20064;-62
2022/09/29 06:06:21;;;;;;;15.75;14.02;;;;;;;6.80;80.78;99834.81;3577275;40;20110;-62
2022/09/29 06:08:49;;;;;;;18.48;13.95;;;;;;;6.76;80.32;99824.44;3577683;40;20142;-63
2022/09/29 06:11:19;;;;;;;16.17;13.38;;;;;;;6.77;80.69;99818.13;3582779;40;20064;-62
2022/09/29 06:13:49;;;;;;;19.77;14.60;;;;;;;6.13;80.74;99703.69;3578214;40;20366;-62
2022/09/29 06:16:18;;;;;;;17.92;14.48;;;;;;;6.96;81.20;99832.91;3579245;40;20040;-61
2022/09/29 06:18:45;;;;;;;17.30;14.50;;;;;;;7.05;80.69;99835.97;3586468;40;20118;-63
2022/09/29 06:21:15;;;;;;;16.23;14.52;;;;;;;7.12;81.40;99846.16;3579641;40;20085;-62
2022/09/29 06:23:41;;;;;;;18.95;15.55;;;;;;;7.20;81.85;99841.19;3583574;40;20279;-62
2022/09/29 06:26:12;;;;;;;16.63;14.82;;;;;;;7.26;81.29;99839.91;3583746;40;20072;-62
2022/09/29 06:28:38;;;;;;;19.13;13.70;;;;;;;7.30;81.76;99846.81;3583598;40;20412;-62
2022/09/29 06:31:13;;;;;;;18.65;15.32;;;;;;;7.36;81.54;99856.25;3580183;40;20091;-63
2022/09/29 06:33:39;;;;;;;17.75;14.95;;;;;;;7.33;81.42;99835.06;3578438;40;20056;-62
2022/09/29 06:39:25;;;;;;;19.58;15.15;;;;;;;7.49;81.24;99857.16;3581758;40;20117;-61
2022/09/29 06:41:53;;;;;;;18.95;14.25;;;;;;;7.51;81.82;99855.25;3583341;40;20064;-61
2022/09/29 06:44:24;;;;;;;18.63;15.05;;;;;;;7.61;81.54;99860.84;3581264;39;20048;-61
2022/09/29 06:46:51;;;;;;;18.58;14.68;;;;;;;7.66;81.72;99867.63;3574357;40;20058;-61
2022/09/29 06:49:19;;;;;;;17.95;14.60;;;;;;;7.60;81.67;99848.44;3577231;40;20395;-62
2022/09/29 06:51:45;;;;;;;20.85;15.68;;;;;;;7.76;81.46;99875.03;3581585;40;20088;-62
2022/09/29 06:54:15;;;;;;;18.08;14.90;;;;;;;7.68;81.72;99860.38;3578315;40;20057;-62
2022/09/29 06:56:41;;;;;;;19.02;15.57;;;;;;;7.76;81.86;99862.53;3580879;40;20364;-62
2022/09/29 06:59:07;;;;;;;17.88;14.50;;;;;;;7.85;81.81;99861.91;3583956;40;20053;-62
2022/09/29 07:01:34;;;;;;;19.45;13.70;;;;;;;7.98;81.40;99872.66;3582700;40;20058;-63
2022/09/29 07:04:01;;;;;;;19.10;15.20;;;;;;;7.63;81.03;99803.63;3582683;40;20048;-62
2022/09/29 07:06:28;;;;;;;19.23;13.95;;;;;;;8.17;81.29;99884.84;3584248;40;20141;-63
2022/09/29 07:08:58;;;;;;;18.33;14.23;;;;;;;8.28;81.06;99883.16;3586726;40;20058;-62
2022/09/29 07:11:25;;;;;;;17.73;14.60;;;;;;;8.35;81.42;99873.75;3581756;40;20147;-62
2022/09/29 07:13:51;;;;;;;19.27;13.93;;;;;;;8.57;80.75;99885.69;3585354;40;20181;-62
2022/09/29 07:16:17;;;;;;;20.63;14.15;;;;;;;8.48;80.96;99847.00;3579661;40;20380;-62
2022/09/29 07:18:45;;;;;;;20.38;13.90;;;;;;;8.92;80.48;99887.75;3578816;39;20124;-62
2022/09/29 07:21:17;;;;;;;17.67;13.27;;;;;;;9.10;79.74;99894.47;3581022;40;20044;-62
2022/09/29 07:23:46;;;;;;;20.85;13.75;;;;;;;9.32;79.41;99885.78;3580019;40;20058;-62
2022/09/29 07:26:15;;;;;;;17.52;13.10;;;;;;;9.52;78.30;99895.94;3584009;40;20063;-62
2022/09/29 07:28:40;;;;;;;17.33;11.88;;;;;;;9.68;77.24;99892.16;3584634;40;20060;-63
2022/09/29 07:31:11;;;;;;;15.98;11.77;;;;;;;9.94;77.39;99900.97;3582061;40;20062;-62
2022/09/29 07:33:36;;;;;;;16.65;12.65;;;;;;;9.60;76.47;99822.94;3582555;40;20123;-63
2022/09/29 07:36:02;;;;;;;13.55;11.13;;;;;;;10.20;75.10;99899.84;3576774;39;20303;-63
2022/09/29 07:38:30;;;;;;;15.65;12.07;;;;;;;10.21;74.72;99889.97;3574817;40;20285;-62
2022/09/29 07:41:06;;;;;;;15.90;11.20;;;;;;;10.37;72.96;99913.88;3581327;40;20055;-62
2022/09/29 07:43:32;;;;;;;16.90;12.25;;;;;;;10.51;74.73;99904.78;3579878;40;20059;-62
2022/09/29 07:46:01;;;;;;;12.93;11.07;;;;;;;10.78;73.58;99916.06;3581734;40;20063;-63
2022/09/29 07:48:29;;;;;;;14.80;11.77;;;;;;;10.97;73.28;99917.34;3580478;40;20047;-63
2022/09/29 07:51:12;;;;;;;13.32;10.80;;;;;;;11.11;73.01;99907.22;3578438;39;21263;-63
2022/09/29 07:53:39;;;;;;;15.38;10.80;;;;;;;11.31;70.72;99919.09;3579516;40;20126;-62
2022/09/29 07:56:07;;;;;;;15.98;10.63;;;;;;;11.47;70.76;99924.09;3580307;40;20410;-63
2022/09/29 07:58:34;;;;;;;13.70;11.00;;;;;;;11.41;70.79;99888.75;3580432;40;20056;-63
2022/09/29 08:01:05;;;;;;;17.00;10.43;;;;;;;11.62;68.38;99925.56;3576911;40;20100;-63
2022/09/29 08:03:31;;;;;;;13.70;10.23;;;;;;;10.86;68.89;99816.88;3578829;40;20060;-63
2022/09/29 08:05:58;;;;;;;11.70;10.48;;;;;;;11.52;69.45;99937.22;3580951;40;20064;-62
2022/09/29 08:08:24;;;;;;;15.68;10.65;;;;;;;11.52;68.39;99934.53;3582562;40;20088;-62
2022/09/29 08:10:50;;;;;;;14.50;9.45;;;;;;;11.40;69.46;99930.97;3580767;40;20059;-63
2022/09/29 08:13:16;;;;;;;12.48;10.48;;;;;;;11.32;69.83;99942.34;3579838;40;20063;-63
2022/09/29 08:15:41;;;;;;;14.48;10.30;;;;;;;11.34;70.10;99945.75;3580665;40;20102;-63
2022/09/29 08:18:07;;;;;;;12.98;10.10;;;;;;;10.95;70.03;99852.09;3577364;40;20300;-62
2022/09/29 08:20:36;;;;;;;15.40;10.43;;;;;;;11.58;70.51;99955.56;3581924;40;20053;-64
2022/09/29 08:23:02;;;;;;;12.98;9.98;;;;;;;11.67;69.44;99959.31;3580133;40;20432;-63
2022/09/29 08:25:27;;;;;;;13.30;9.75;;;;;;;11.77;68.87;99952.25;3581871;40;20064;-63
2022/09/29 08:27:53;;;;;;;12.82;10.02;;;;;;;11.89;68.78;99955.78;3584117;40;20048;-63
2022/09/29 08:30:22;;;;;;;14.32;9.27;;;;;;;11.91;68.94;99956.53;3588214;39;20105;-63
2022/09/29 08:32:53;;;;;;;12.05;9.18;;;;;;;11.94;68.55;99964.38;3583636;40;20660;-63
2022/09/29 08:35:19;;;;;;;13.98;10.43;;;;;;;11.97;68.81;99961.44;3578700;40;20391;-63
2022/09/29 08:37:44;;;;;;;15.07;10.38;;;;;;;11.95;69.31;99949.91;3583295;39;20310;-64
2022/09/29 08:40:10;;;;;;;13.48;9.50;;;;;;;12.17;67.62;99976.78;3577540;40;20056;-63
2022/09/29 08:43:01;;;;;;;15.27;10.52;;;;;;;12.25;67.79;99973.50;3580551;40;20051;-65
2022/09/29 08:45:40;;;;;;;16.67;10.75;;;;;;;12.41;68.35;99975.78;3583800;40;20056;-63
2022/09/29 08:48:24;;;;;;;13.95;9.55;;;;;;;12.46;66.78;99966.31;3583318;40;20068;-63
2022/09/29 08:50:50;;;;;;;;;;;;;;;12.66;68.42;99978.13;3581666;40;20435;-64
2022/09/29 08:53:22;;;;;;;13.38;9.75;;;;;;;12.34;67.03;99891.00;3577841;40;19944;-63
2022/09/29 08:56:04;;;;;;;13.20;9.85;;;;;;;12.47;67.04;99897.94;3578759;40;20060;-64
2022/09/29 08:58:32;;;;;;;13.55;9.52;;;;;;;13.05;65.56;99986.50;3578284;40;20456;-63
2022/09/29 09:01:34;;;;;;;13.70;9.38;;;;;;;13.13;65.19;99986.72;3578461;40;20113;-64
2022/09/29 09:04:27;;;;;;;12.27;9.52;;;;;;;13.20;65.06;99993.28;3579552;40;20337;-63
2022/09/29 09:07:14;;;;;;;13.40;9.25;;;;;;;13.27;65.86;99987.41;3577265;40;20060;-63
2022/09/29 09:10:20;;;;;;;13.85;9.50;;;;;;;13.37;66.49;99989.16;3578274;40;20053;-63
2022/09/29 09:13:17;;;;;;;12.77;9.32;;;;;;;13.02;66.08;99909.38;3578003;40;20127;-63
2022/09/29 09:16:33;;;;;;;14.27;9.23;;;;;;;13.68;65.83;99998.13;3578930;40;20084;-62
2022/09/29 09:19:29;;;;;;;10.60;8.98;;;;;;;13.83;64.02;99995.09;3576442;40;20072;-62
2022/09/29 09:22:21;;;;;;;11.70;8.27;;;;;;;13.98;64.05;99995.53;3577437;40;20423;-62
2022/09/29 09:24:58;;;;;;;11.45;8.40;;;;;;;14.13;64.39;99992.31;3578175;40;20142;-63
2022/09/29 09:27:38;;;;;;;11.32;8.43;;;;;;;14.37;63.91;99997.38;3576381;40;20053;-63
2022/09/29 09:30:14;;;;;;;10.75;8.18;;;;;;;14.78;62.14;99991.84;3576703;40;20076;-63
2022/09/29 09:32:59;;;;;;;9.40;7.72;;;;;;;15.11;62.37;99976.19;3579691;40;20052;-63
2022/09/29 09:35:48;;;;;;;10.23;7.50;;;;;;;15.49;60.07;99996.91;3578195;40;20180;-63
2022/09/29 09:39:00;;;;;;;8.13;6.18;;;;;;;15.84;60.01;99993.53;3580334;40;20058;-62
2022/09/29 09:41:30;;;;;;;7.95;6.20;;;;;;;16.17;59.16;99994.78;3578270;40;20048;-61
2022/09/29 09:44:21;;;;;;;7.50;5.78;;;;;;;16.52;57.13;100003.13;3574653;40;20045;-62
2022/09/29 09:47:00;;;;;;;8.98;5.75;;;;;;;16.80;56.87;100003.97;3580058;40;20052;-64
2022/09/29 09:50:03;;;;;;;7.85;5.63;;;;;;;16.87;55.17;100005.03;3576638;40;20064;-62
2022/09/29 09:52:48;;;;;;;9.70;6.25;;;;;;;17.13;56.65;99994.25;3577576;40;20052;-62
2022/09/29 09:55:20;;;;;;;10.43;6.20;;;;;;;17.27;55.16;100015.41;3578650;40;20567;-61
2022/09/29 09:58:48;;;;;;;8.80;5.15;;;;;;;17.56;53.95;100011.53;3581050;40;20383;-62
2022/09/29 10:01:13;;;;;;;7.40;5.30;;;;;;;17.75;53.37;100000.44;3558445;40;20086;-63
2022/09/29 10:03:39;;;;;;;9.60;5.55;;;;;;;17.70;52.23;99997.38;3580446;40;20451;-63
2022/09/29 10:06:08;;;;;;;8.73;5.07;;;;;;;17.86;52.76;100002.06;3579165;40;20068;-63
2022/09/29 10:08:40;;;;;;;7.82;4.53;;;;;;;18.02;52.11;100001.28;3578744;40;20122;-62
2022/09/29 10:11:18;;;;;;;4.85;4.07;;;;;;;18.18;50.98;100012.22;3578540;40;20053;-62
2022/09/29 10:13:47;;;;;;;5.07;4.25;;;;;;;18.35;51.12;99995.97;3580484;40;20063;-61
2022/09/29 10:16:24;;;;;;;4.95;3.53;;;;;;;18.26;48.80;100008.69;3579198;40;20688;-62
2022/09/29 10:18:53;;;;;;;7.03;3.72;;;;;;;18.25;50.14;100012.44;3580108;40;20072;-62
2022/09/29 10:21:28;;;;;;;3.22;2.92;;;;;;;18.20;49.58;100007.47;3579036;40;20084;-62
2022/09/29 10:24:00;;;;;;;3.53;3.10;;;;;;;18.32;47.80;100014.31;3582111;40;20067;-62
2022/09/29 10:26:37;;;;;;;5.38;4.20;;;;;;;18.45;50.05;100005.69;3578238;40;20508;-62
2022/09/29 10:29:40;;;;;;;4.53;3.28;;;;;;;18.70;50.13;100017.47;3577271;40;20135;-62
2022/09/29 10:32:11;;;;;;;5.00;3.80;;;;;;;18.87;49.75;100020.25;3582565;40;20140;-62
2022/09/29 10:34:43;;;;;;;3.65;3.35;;;;;;;18.94;48.41;100010.41;3579611;40;20117;-63
2022/09/29 10:37:41;;;;;;;4.55;3.45;;;;;;;19.14;47.33;100019.94;3578789;40;20137;-63
2022/09/29 10:40:07;;;;;;;5.70;3.30;;;;;;;19.38;47.29;100016.38;3581988;40;20368;-63
2022/09/29 10:42:42;;;;;;;5.43;3.22;;;;;;;19.61;46.23;100027.41;3577755;39;20063;-63
2022/09/29 10:45:31;;;;;;;4.07;3.00;;;;;;;19.78;47.25;100027.41;3581685;40;20068;-63
2022/09/29 10:47:56;;;;;;;4.43;2.53;;;;;;;19.14;45.18;99886.44;3577577;40;20052;-63
2022/09/29 10:50:46;;;;;;;3.72;2.78;;;;;;;19.97;45.04;100016.09;3580411;40;20052;-62
2022/09/29 10:53:40;;;;;;;2.67;2.45;;;;;;;20.08;43.53;100029.38;3579763;40;20090;-63
2022/09/29 10:56:23;;;;;;;3.17;2.25;;;;;;;20.14;44.04;100011.44;3579745;40;20048;-62
2022/09/29 10:59:02;;;;;;;2.42;2.22;;;;;;;20.30;42.38;100027.75;3582058;40;20293;-62
2022/09/29 11:01:41;;;;;;;3.10;2.50;;;;;;;20.27;43.41;100024.53;3581442;40;20402;-62
2022/09/29 11:04:23;;;;;;;3.58;2.60;;;;;;;20.45;45.77;100007.88;3581003;40;20048;-62
2022/09/29 11:06:50;;;;;;;3.92;2.90;;;;;;;20.62;43.13;100029.47;3578739;39;20109;-62
2022/09/29 11:09:15;;;;;;;3.60;2.28;;;;;;;20.63;42.56;100028.44;3579492;40;20061;-62
2022/09/29 11:11:47;;;;;;;3.15;2.33;;;;;;;20.53;42.91;100035.19;3579625;40;20048;-62
2022/09/29 11:14:48;;;;;;;2.15;1.88;;;;;;;19.79;42.67;100040.00;3578604;40;20291;-62
2022/09/29 11:17:35;;;;;;;2.42;2.00;;;;;;;19.60;42.61;100028.44;3580232;40;20062;-62
2022/09/29 11:20:09;;;;;;;2.85;2.10;;;;;;;18.85;43.67;99867.94;3578511;40;20333;-63
2022/09/29 11:23:13;;;;;;;1.92;1.73;;;;;;;20.26;43.15;100033.72;3580316;40;20060;-62
2022/09/29 11:26:09;;;;;;;3.35;2.25;;;;;;;20.58;42.21;100036.34;3580633;40;20052;-62
2022/09/29 11:29:02;;;;;;;2.17;1.85;;;;;;;20.84;41.29;100037.91;3581172;40;20078;-64
2022/09/29 11:32:04;;;;;;;3.15;2.60;;;;;;;21.03;42.04;100040.16;3579265;40;20640;-62
2022/09/29 11:34:57;;;;;;;2.20;2.00;;;;;;;21.45;40.97;100041.53;3579766;40;20047;-63
2022/09/29 11:37:44;;;;;;;1.73;1.63;;;;;;;21.31;39.13;100039.56;3578542;40;20342;-63
2022/09/29 11:40:30;;;;;;;1.75;1.52;;;;;;;21.08;38.84;100040.44;3576184;40;20389;-62
2022/09/29 11:43:43;;;;;;;2.15;1.85;;;;;;;21.23;39.20;100047.84;3577341;40;20117;-62
2022/09/29 11:47:10;;;;;;;2.85;1.80;;;;;;;21.30;38.64;100046.91;3574517;40;20068;-62
2022/09/29 11:50:05;;;;;;;3.45;1.90;;;;;;;21.51;40.49;100043.53;3558446;40;20045;-63
2022/09/29 11:52:58;;;;;;;2.03;1.80;;;;;;;21.80;39.05;100044.63;3558761;40;20308;-63
2022/09/29 11:56:10;;;;;;;1.75;1.60;;;;;;;22.16;38.24;100044.75;3576490;40;20065;-62
2022/09/29 11:59:26;;;;;;;1.90;1.63;;;;;;;22.38;38.73;100039.34;3577408;40;20594;-63
2022/09/29 12:02:56;;;;;;;2.75;1.75;;;;;;;22.54;36.39;100046.50;3576817;40;20280;-63
2022/09/29 12:05:43;;;;;;;2.92;1.70;;;;;;;22.62;36.03;100060.09;3575981;40;20088;-62